sensor_id;sensor_type;location;lat;lon;timestamp;P1;durP1;ratioP1;P2;durP2;ratioP2
26211;SDS011;13951;49.516;6.094;2022-11-20T00:02:15;3.83;;;2.77;;
26211;SDS011;13951;49.516;6.094;2022-11-20T00:04:48;5.60;;;2.90;;
26211;SDS011;13951;49.516;6.094;2022-11-20T00:07:21;6.03;;;2.80;;
26211;SDS011;13951;49.516;6.094;2022-11-20T00:09:54;4.73;;;3.13;;
26211;SDS011;13951;49.516;6.094;2022-11-20T00:12:27;4.27;;;3.10;;
26211;SDS011;13951;49.516;6.094;2022-11-20T00:15:00;6.30;;;3.07;;
26211;SDS011;13951;49.516;6.094;2022-11-20T00:17:33;5.87;;;3.17;;
26211;SDS011;13951;49.516;6.094;2022-11-20T00:20:06;3.23;;;2.77;;
26211;SDS011;13951;49.516;6.094;2022-11-20T00:22:39;4.20;;;3.03;;
26211;SDS011;13951;49.516;6.094;2022-11-20T00:25:12;5.53;;;3.37;;
26211;SDS011;13951;49.516;6.094;2022-11-20T00:27:45;4.83;;;2.87;;
26211;SDS011;13951;49.516;6.094;2022-11-20T00:30:18;3.47;;;2.73;;
26211;SDS011;13951;49.516;6.094;2022-11-20T00:32:51;3.97;;;2.73;;
26211;SDS011;13951;49.516;6.094;2022-11-20T00:35:24;3.93;;;2.70;;
26211;SDS011;13951;49.516;6.094;2022-11-20T00:37:57;2.90;;;2.53;;
26211;SDS011;13951;49.516;6.094;2022-11-20T00:40:30;4.27;;;2.87;;
26211;SDS011;13951;49.516;6.094;2022-11-20T00:43:03;5.10;;;2.73;;
26211;SDS011;13951;49.516;6.094;2022-11-20T00:45:36;4.67;;;2.83;;
26211;SDS011;13951;49.516;6.094;2022-11-20T00:48:09;3.58;;;2.80;;
26211;SDS011;13951;49.516;6.094;2022-11-20T00:50:42;5.40;;;2.60;;
26211;SDS011;13951;49.516;6.094;2022-11-20T00:53:15;3.47;;;2.70;;
26211;SDS011;13951;49.516;6.094;2022-11-20T00:58:35;3.33;;;2.63;;
26211;SDS011;13951;49.516;6.094;2022-11-20T01:03:48;3.70;;;2.70;;
26211;SDS011;13951;49.516;6.094;2022-11-20T01:06:26;3.73;;;2.97;;
26211;SDS011;13951;49.516;6.094;2022-11-20T01:09:00;3.53;;;2.63;;
26211;SDS011;13951;49.516;6.094;2022-11-20T01:11:35;4.57;;;2.80;;
26211;SDS011;13951;49.516;6.094;2022-11-20T01:14:12;3.80;;;2.90;;
26211;SDS011;13951;49.516;6.094;2022-11-20T01:16:46;4.43;;;3.17;;
26211;SDS011;13951;49.516;6.094;2022-11-20T01:19:21;3.90;;;2.50;;
26211;SDS011;13951;49.516;6.094;2022-11-20T01:21:55;5.70;;;3.07;;
26211;SDS011;13951;49.516;6.094;2022-11-20T01:24:28;3.43;;;2.67;;
26211;SDS011;13951;49.516;6.094;2022-11-20T01:27:01;3.67;;;2.80;;
26211;SDS011;13951;49.516;6.094;2022-11-20T01:29:34;4.43;;;3.10;;
26211;SDS011;13951;49.516;6.094;2022-11-20T01:32:07;8.63;;;2.77;;
26211;SDS011;13951;49.516;6.094;2022-11-20T01:34:40;5.37;;;2.43;;
26211;SDS011;13951;49.516;6.094;2022-11-20T01:37:13;3.93;;;2.93;;
26211;SDS011;13951;49.516;6.094;2022-11-20T01:39:46;3.77;;;2.83;;
26211;SDS011;13951;49.516;6.094;2022-11-20T01:42:19;4.83;;;3.23;;
26211;SDS011;13951;49.516;6.094;2022-11-20T01:48:02;4.87;;;2.90;;
26211;SDS011;13951;49.516;6.094;2022-11-20T01:50:35;4.03;;;3.03;;
26211;SDS011;13951;49.516;6.094;2022-11-20T01:53:08;3.17;;;2.73;;
26211;SDS011;13951;49.516;6.094;2022-11-20T01:55:50;4.03;;;2.93;;
26211;SDS011;13951;49.516;6.094;2022-11-20T01:58:27;3.37;;;2.70;;
26211;SDS011;13951;49.516;6.094;2022-11-20T02:01:01;5.18;;;3.17;;
26211;SDS011;13951;49.516;6.094;2022-11-20T02:03:35;5.67;;;3.40;;
26211;SDS011;13951;49.516;6.094;2022-11-20T02:06:16;3.67;;;2.93;;
26211;SDS011;13951;49.516;6.094;2022-11-20T02:08:51;3.70;;;2.40;;
26211;SDS011;13951;49.516;6.094;2022-11-20T02:11:24;4.23;;;3.50;;
26211;SDS011;13951;49.516;6.094;2022-11-20T02:13:58;4.95;;;3.30;;
26211;SDS011;13951;49.516;6.094;2022-11-20T02:16:35;4.23;;;3.17;;
26211;SDS011;13951;49.516;6.094;2022-11-20T02:19:28;4.50;;;3.07;;
26211;SDS011;13951;49.516;6.094;2022-11-20T02:22:08;4.53;;;2.73;;
26211;SDS011;13951;49.516;6.094;2022-11-20T02:24:43;4.77;;;2.90;;
26211;SDS011;13951;49.516;6.094;2022-11-20T02:27:16;2.97;;;2.27;;
26211;SDS011;13951;49.516;6.094;2022-11-20T02:29:51;3.60;;;2.80;;
26211;SDS011;13951;49.516;6.094;2022-11-20T02:32:28;3.97;;;2.40;;
26211;SDS011;13951;49.516;6.094;2022-11-20T02:35:08;5.77;;;2.40;;
26211;SDS011;13951;49.516;6.094;2022-11-20T02:37:42;3.87;;;2.23;;
26211;SDS011;13951;49.516;6.094;2022-11-20T02:40:15;3.13;;;2.50;;
26211;SDS011;13951;49.516;6.094;2022-11-20T02:42:51;3.47;;;1.80;;
26211;SDS011;13951;49.516;6.094;2022-11-20T02:45:24;1.97;;;1.57;;
26211;SDS011;13951;49.516;6.094;2022-11-20T02:47:57;4.03;;;2.20;;
26211;SDS011;13951;49.516;6.094;2022-11-20T02:50:30;2.67;;;1.87;;
26211;SDS011;13951;49.516;6.094;2022-11-20T02:53:03;4.77;;;2.00;;
26211;SDS011;13951;49.516;6.094;2022-11-20T02:55:36;5.87;;;2.23;;
26211;SDS011;13951;49.516;6.094;2022-11-20T02:58:09;3.93;;;1.70;;
26211;SDS011;13951;49.516;6.094;2022-11-20T03:00:42;3.40;;;1.97;;
26211;SDS011;13951;49.516;6.094;2022-11-20T03:03:15;3.60;;;2.43;;
26211;SDS011;13951;49.516;6.094;2022-11-20T03:05:48;4.60;;;2.50;;
26211;SDS011;13951;49.516;6.094;2022-11-20T03:08:21;3.60;;;2.27;;
26211;SDS011;13951;49.516;6.094;2022-11-20T03:10:54;5.33;;;2.43;;
26211;SDS011;13951;49.516;6.094;2022-11-20T03:13:27;4.72;;;3.03;;
26211;SDS011;13951;49.516;6.094;2022-11-20T03:16:34;4.53;;;2.73;;
26211;SDS011;13951;49.516;6.094;2022-11-20T03:18:59;3.80;;;2.57;;
26211;SDS011;13951;49.516;6.094;2022-11-20T03:21:33;4.97;;;3.07;;
26211;SDS011;13951;49.516;6.094;2022-11-20T03:24:06;4.43;;;2.67;;
26211;SDS011;13951;49.516;6.094;2022-11-20T03:26:39;7.13;;;4.65;;
26211;SDS011;13951;49.516;6.094;2022-11-20T03:29:12;6.23;;;4.20;;
26211;SDS011;13951;49.516;6.094;2022-11-20T03:31:45;6.30;;;4.03;;
26211;SDS011;13951;49.516;6.094;2022-11-20T03:34:18;5.87;;;4.07;;
26211;SDS011;13951;49.516;6.094;2022-11-20T03:36:51;5.10;;;4.10;;
26211;SDS011;13951;49.516;6.094;2022-11-20T03:39:24;7.03;;;4.87;;
26211;SDS011;13951;49.516;6.094;2022-11-20T03:41:58;6.90;;;4.43;;
26211;SDS011;13951;49.516;6.094;2022-11-20T03:44:31;7.00;;;4.10;;
26211;SDS011;13951;49.516;6.094;2022-11-20T03:47:04;7.40;;;4.60;;
26211;SDS011;13951;49.516;6.094;2022-11-20T03:49:37;8.77;;;4.40;;
26211;SDS011;13951;49.516;6.094;2022-11-20T03:52:10;9.10;;;4.87;;
26211;SDS011;13951;49.516;6.094;2022-11-20T03:54:43;8.63;;;4.70;;
26211;SDS011;13951;49.516;6.094;2022-11-20T03:57:16;6.20;;;4.20;;
26211;SDS011;13951;49.516;6.094;2022-11-20T03:59:49;5.97;;;4.20;;
26211;SDS011;13951;49.516;6.094;2022-11-20T04:02:22;5.90;;;3.47;;
26211;SDS011;13951;49.516;6.094;2022-11-20T04:04:55;7.47;;;4.60;;
26211;SDS011;13951;49.516;6.094;2022-11-20T04:07:28;6.50;;;4.30;;
26211;SDS011;13951;49.516;6.094;2022-11-20T04:10:01;6.67;;;3.80;;
26211;SDS011;13951;49.516;6.094;2022-11-20T04:12:34;7.23;;;4.90;;
26211;SDS011;13951;49.516;6.094;2022-11-20T04:15:07;8.77;;;4.50;;
26211;SDS011;13951;49.516;6.094;2022-11-20T04:17:40;7.73;;;4.80;;
26211;SDS011;13951;49.516;6.094;2022-11-20T04:20:13;7.87;;;4.63;;
26211;SDS011;13951;49.516;6.094;2022-11-20T04:22:46;8.23;;;4.40;;
26211;SDS011;13951;49.516;6.094;2022-11-20T04:25:19;8.05;;;4.68;;
26211;SDS011;13951;49.516;6.094;2022-11-20T04:27:52;7.97;;;4.77;;
26211;SDS011;13951;49.516;6.094;2022-11-20T04:30:25;7.67;;;4.67;;
26211;SDS011;13951;49.516;6.094;2022-11-20T04:32:58;8.40;;;4.93;;
26211;SDS011;13951;49.516;6.094;2022-11-20T04:35:33;6.80;;;4.43;;
26211;SDS011;13951;49.516;6.094;2022-11-20T04:38:07;8.70;;;5.20;;
26211;SDS011;13951;49.516;6.094;2022-11-20T04:40:40;6.90;;;4.43;;
26211;SDS011;13951;49.516;6.094;2022-11-20T04:43:13;7.90;;;5.07;;
26211;SDS011;13951;49.516;6.094;2022-11-20T04:45:50;6.67;;;4.50;;
26211;SDS011;13951;49.516;6.094;2022-11-20T04:48:23;8.13;;;4.73;;
26211;SDS011;13951;49.516;6.094;2022-11-20T04:50:57;8.77;;;5.33;;
26211;SDS011;13951;49.516;6.094;2022-11-20T04:53:30;6.60;;;4.80;;
26211;SDS011;13951;49.516;6.094;2022-11-20T04:56:04;6.03;;;4.27;;
26211;SDS011;13951;49.516;6.094;2022-11-20T04:58:37;7.73;;;4.23;;
26211;SDS011;13951;49.516;6.094;2022-11-20T05:01:12;6.73;;;4.60;;
26211;SDS011;13951;49.516;6.094;2022-11-20T05:03:45;6.53;;;4.60;;
26211;SDS011;13951;49.516;6.094;2022-11-20T05:06:20;7.97;;;5.10;;
26211;SDS011;13951;49.516;6.094;2022-11-20T05:08:53;6.10;;;4.20;;
26211;SDS011;13951;49.516;6.094;2022-11-20T05:11:26;6.67;;;4.57;;
26211;SDS011;13951;49.516;6.094;2022-11-20T05:14:00;7.37;;;4.63;;
26211;SDS011;13951;49.516;6.094;2022-11-20T05:16:34;5.47;;;3.90;;
26211;SDS011;13951;49.516;6.094;2022-11-20T05:19:08;7.00;;;4.17;;
26211;SDS011;13951;49.516;6.094;2022-11-20T05:21:41;6.83;;;3.53;;
26211;SDS011;13951;49.516;6.094;2022-11-20T05:24:13;7.33;;;3.90;;
26211;SDS011;13951;49.516;6.094;2022-11-20T05:26:46;4.90;;;3.30;;
26211;SDS011;13951;49.516;6.094;2022-11-20T05:29:19;4.73;;;3.40;;
26211;SDS011;13951;49.516;6.094;2022-11-20T05:31:53;6.53;;;3.70;;
26211;SDS011;13951;49.516;6.094;2022-11-20T05:34:26;7.00;;;3.90;;
26211;SDS011;13951;49.516;6.094;2022-11-20T05:36:59;7.20;;;4.27;;
26211;SDS011;13951;49.516;6.094;2022-11-20T05:39:32;6.97;;;4.70;;
26211;SDS011;13951;49.516;6.094;2022-11-20T05:42:05;5.70;;;3.93;;
26211;SDS011;13951;49.516;6.094;2022-11-20T05:44:57;5.70;;;3.80;;
26211;SDS011;13951;49.516;6.094;2022-11-20T05:47:33;5.23;;;3.17;;
26211;SDS011;13951;49.516;6.094;2022-11-20T05:50:07;3.57;;;2.63;;
26211;SDS011;13951;49.516;6.094;2022-11-20T05:52:40;4.53;;;2.70;;
26211;SDS011;13951;49.516;6.094;2022-11-20T05:55:13;4.53;;;3.10;;
26211;SDS011;13951;49.516;6.094;2022-11-20T05:57:46;4.30;;;3.13;;
26211;SDS011;13951;49.516;6.094;2022-11-20T06:00:19;4.63;;;2.73;;
26211;SDS011;13951;49.516;6.094;2022-11-20T06:02:52;5.20;;;2.93;;
26211;SDS011;13951;49.516;6.094;2022-11-20T06:05:25;3.03;;;2.50;;
26211;SDS011;13951;49.516;6.094;2022-11-20T06:07:58;2.60;;;2.13;;
26211;SDS011;13951;49.516;6.094;2022-11-20T06:10:33;3.37;;;2.60;;
26211;SDS011;13951;49.516;6.094;2022-11-20T06:13:06;3.40;;;2.60;;
26211;SDS011;13951;49.516;6.094;2022-11-20T06:15:39;4.17;;;3.13;;
26211;SDS011;13951;49.516;6.094;2022-11-20T06:18:12;4.43;;;2.77;;
26211;SDS011;13951;49.516;6.094;2022-11-20T06:20:45;5.27;;;3.23;;
26211;SDS011;13951;49.516;6.094;2022-11-20T06:23:18;5.00;;;3.20;;
26211;SDS011;13951;49.516;6.094;2022-11-20T06:25:51;4.00;;;3.00;;
26211;SDS011;13951;49.516;6.094;2022-11-20T06:28:24;3.87;;;2.80;;
26211;SDS011;13951;49.516;6.094;2022-11-20T06:30:58;6.37;;;2.83;;
26211;SDS011;13951;49.516;6.094;2022-11-20T06:33:31;4.60;;;2.97;;
26211;SDS011;13951;49.516;6.094;2022-11-20T06:36:04;3.10;;;2.50;;
26211;SDS011;13951;49.516;6.094;2022-11-20T06:38:42;3.93;;;2.60;;
26211;SDS011;13951;49.516;6.094;2022-11-20T06:41:16;3.37;;;2.60;;
26211;SDS011;13951;49.516;6.094;2022-11-20T06:43:49;3.93;;;2.67;;
26211;SDS011;13951;49.516;6.094;2022-11-20T06:46:22;4.20;;;2.90;;
26211;SDS011;13951;49.516;6.094;2022-11-20T06:48:55;5.87;;;2.63;;
26211;SDS011;13951;49.516;6.094;2022-11-20T06:51:30;4.07;;;3.20;;
26211;SDS011;13951;49.516;6.094;2022-11-20T06:54:03;4.83;;;3.17;;
26211;SDS011;13951;49.516;6.094;2022-11-20T06:56:36;5.37;;;3.10;;
26211;SDS011;13951;49.516;6.094;2022-11-20T06:59:08;6.07;;;3.23;;
26211;SDS011;13951;49.516;6.094;2022-11-20T07:01:42;8.23;;;3.60;;
26211;SDS011;13951;49.516;6.094;2022-11-20T07:04:15;6.17;;;3.87;;
26211;SDS011;13951;49.516;6.094;2022-11-20T07:06:48;8.52;;;5.15;;
26211;SDS011;13951;49.516;6.094;2022-11-20T07:09:20;5.17;;;3.80;;
26211;SDS011;13951;49.516;6.094;2022-11-20T07:11:54;9.27;;;4.03;;
26211;SDS011;13951;49.516;6.094;2022-11-20T07:14:27;6.40;;;3.83;;
26211;SDS011;13951;49.516;6.094;2022-11-20T07:17:00;7.00;;;3.40;;
26211;SDS011;13951;49.516;6.094;2022-11-20T07:19:33;6.47;;;3.50;;
26211;SDS011;13951;49.516;6.094;2022-11-20T07:22:06;4.90;;;3.50;;
26211;SDS011;13951;49.516;6.094;2022-11-20T07:24:39;8.53;;;3.87;;
26211;SDS011;13951;49.516;6.094;2022-11-20T07:27:17;4.67;;;3.60;;
26211;SDS011;13951;49.516;6.094;2022-11-20T07:29:50;4.90;;;3.20;;
26211;SDS011;13951;49.516;6.094;2022-11-20T07:32:23;6.50;;;3.23;;
26211;SDS011;13951;49.516;6.094;2022-11-20T07:34:56;7.13;;;2.97;;
26211;SDS011;13951;49.516;6.094;2022-11-20T07:37:29;4.50;;;3.30;;
26211;SDS011;13951;49.516;6.094;2022-11-20T07:40:02;3.70;;;2.93;;
26211;SDS011;13951;49.516;6.094;2022-11-20T07:42:35;5.37;;;3.37;;
26211;SDS011;13951;49.516;6.094;2022-11-20T07:45:08;7.77;;;3.40;;
26211;SDS011;13951;49.516;6.094;2022-11-20T07:47:41;4.00;;;2.70;;
26211;SDS011;13951;49.516;6.094;2022-11-20T07:50:15;4.90;;;2.73;;
26211;SDS011;13951;49.516;6.094;2022-11-20T07:52:48;4.23;;;2.43;;
26211;SDS011;13951;49.516;6.094;2022-11-20T07:55:21;3.50;;;2.60;;
26211;SDS011;13951;49.516;6.094;2022-11-20T07:57:54;4.70;;;3.00;;
26211;SDS011;13951;49.516;6.094;2022-11-20T08:00:28;4.87;;;2.70;;
26211;SDS011;13951;49.516;6.094;2022-11-20T08:03:03;3.90;;;2.90;;
26211;SDS011;13951;49.516;6.094;2022-11-20T08:05:36;4.83;;;2.80;;
26211;SDS011;13951;49.516;6.094;2022-11-20T08:08:09;5.43;;;3.20;;
26211;SDS011;13951;49.516;6.094;2022-11-20T08:10:42;5.33;;;3.50;;
26211;SDS011;13951;49.516;6.094;2022-11-20T08:13:15;5.67;;;3.00;;
26211;SDS011;13951;49.516;6.094;2022-11-20T08:16:26;5.50;;;2.93;;
26211;SDS011;13951;49.516;6.094;2022-11-20T08:18:59;5.27;;;2.97;;
26211;SDS011;13951;49.516;6.094;2022-11-20T08:21:33;5.80;;;3.50;;
26211;SDS011;13951;49.516;6.094;2022-11-20T08:24:09;7.83;;;3.30;;
26211;SDS011;13951;49.516;6.094;2022-11-20T08:26:43;5.27;;;2.90;;
26211;SDS011;13951;49.516;6.094;2022-11-20T08:29:15;4.23;;;2.90;;
26211;SDS011;13951;49.516;6.094;2022-11-20T08:31:48;4.17;;;2.80;;
26211;SDS011;13951;49.516;6.094;2022-11-20T08:34:21;5.57;;;3.43;;
26211;SDS011;13951;49.516;6.094;2022-11-20T08:36:54;3.33;;;2.67;;
26211;SDS011;13951;49.516;6.094;2022-11-20T08:39:28;4.00;;;2.97;;
26211;SDS011;13951;49.516;6.094;2022-11-20T08:42:01;4.77;;;3.13;;
26211;SDS011;13951;49.516;6.094;2022-11-20T08:44:34;6.13;;;3.07;;
26211;SDS011;13951;49.516;6.094;2022-11-20T08:47:07;6.40;;;2.90;;
26211;SDS011;13951;49.516;6.094;2022-11-20T08:49:40;2.83;;;2.53;;
26211;SDS011;13951;49.516;6.094;2022-11-20T08:52:13;3.07;;;2.73;;
26211;SDS011;13951;49.516;6.094;2022-11-20T08:54:46;2.87;;;2.30;;
26211;SDS011;13951;49.516;6.094;2022-11-20T08:57:19;7.03;;;2.57;;
26211;SDS011;13951;49.516;6.094;2022-11-20T08:59:52;3.27;;;2.17;;
26211;SDS011;13951;49.516;6.094;2022-11-20T09:02:41;3.37;;;2.50;;
26211;SDS011;13951;49.516;6.094;2022-11-20T09:05:14;2.80;;;2.10;;
26211;SDS011;13951;49.516;6.094;2022-11-20T09:07:47;3.33;;;1.80;;
26211;SDS011;13951;49.516;6.094;2022-11-20T09:10:21;2.27;;;1.87;;
26211;SDS011;13951;49.516;6.094;2022-11-20T09:12:56;2.63;;;2.30;;
26211;SDS011;13951;49.516;6.094;2022-11-20T09:15:29;4.67;;;2.23;;
26211;SDS011;13951;49.516;6.094;2022-11-20T09:18:02;2.53;;;1.87;;
26211;SDS011;13951;49.516;6.094;2022-11-20T09:20:36;2.83;;;1.80;;
26211;SDS011;13951;49.516;6.094;2022-11-20T09:23:09;3.90;;;1.90;;
26211;SDS011;13951;49.516;6.094;2022-11-20T09:25:42;3.77;;;2.43;;
26211;SDS011;13951;49.516;6.094;2022-11-20T09:28:15;2.77;;;2.20;;
26211;SDS011;13951;49.516;6.094;2022-11-20T09:30:51;3.13;;;1.90;;
26211;SDS011;13951;49.516;6.094;2022-11-20T09:33:30;3.50;;;2.00;;
26211;SDS011;13951;49.516;6.094;2022-11-20T09:36:03;3.97;;;2.05;;
26211;SDS011;13951;49.516;6.094;2022-11-20T09:38:37;7.57;;;1.90;;
26211;SDS011;13951;49.516;6.094;2022-11-20T09:41:18;3.47;;;2.07;;
26211;SDS011;13951;49.516;6.094;2022-11-20T09:49:37;2.73;;;2.10;;
26211;SDS011;13951;49.516;6.094;2022-11-20T09:52:58;4.27;;;2.33;;
26211;SDS011;13951;49.516;6.094;2022-11-20T09:55:10;4.90;;;2.10;;
26211;SDS011;13951;49.516;6.094;2022-11-20T09:57:46;3.07;;;1.70;;
26211;SDS011;13951;49.516;6.094;2022-11-20T10:00:19;4.97;;;2.00;;
26211;SDS011;13951;49.516;6.094;2022-11-20T10:05:31;9.57;;;2.50;;
26211;SDS011;13951;49.516;6.094;2022-11-20T10:08:25;2.90;;;2.40;;
26211;SDS011;13951;49.516;6.094;2022-11-20T10:16:22;3.73;;;2.07;;
26211;SDS011;13951;49.516;6.094;2022-11-20T10:19:05;3.83;;;1.80;;
26211;SDS011;13951;49.516;6.094;2022-11-20T10:29:47;2.87;;;1.83;;
26211;SDS011;13951;49.516;6.094;2022-11-20T10:32:23;5.53;;;2.60;;
26211;SDS011;13951;49.516;6.094;2022-11-20T10:35:01;5.53;;;1.93;;
26211;SDS011;13951;49.516;6.094;2022-11-20T10:37:37;2.93;;;1.90;;
26211;SDS011;13951;49.516;6.094;2022-11-20T10:42:51;1.70;;;1.60;;
26211;SDS011;13951;49.516;6.094;2022-11-20T10:50:42;3.60;;;1.40;;
26211;SDS011;13951;49.516;6.094;2022-11-20T10:56:04;3.40;;;1.70;;
26211;SDS011;13951;49.516;6.094;2022-11-20T11:01:29;1.93;;;1.40;;
26211;SDS011;13951;49.516;6.094;2022-11-20T11:04:02;4.27;;;1.70;;
26211;SDS011;13951;49.516;6.094;2022-11-20T11:06:37;2.77;;;1.27;;
26211;SDS011;13951;49.516;6.094;2022-11-20T11:09:19;6.23;;;1.10;;
26211;SDS011;13951;49.516;6.094;2022-11-20T11:11:54;3.43;;;1.10;;
26211;SDS011;13951;49.516;6.094;2022-11-20T11:14:27;2.53;;;1.37;;
26211;SDS011;13951;49.516;6.094;2022-11-20T11:17:00;3.03;;;1.20;;
26211;SDS011;13951;49.516;6.094;2022-11-20T11:19:33;1.53;;;1.00;;
26211;SDS011;13951;49.516;6.094;2022-11-20T11:22:06;2.57;;;1.30;;
26211;SDS011;13951;49.516;6.094;2022-11-20T11:24:51;3.07;;;1.20;;
26211;SDS011;13951;49.516;6.094;2022-11-20T11:27:24;7.60;;;1.53;;
26211;SDS011;13951;49.516;6.094;2022-11-20T11:30:01;3.80;;;1.23;;
26211;SDS011;13951;49.516;6.094;2022-11-20T11:32:34;2.27;;;1.10;;
26211;SDS011;13951;49.516;6.094;2022-11-20T11:35:26;1.13;;;1.03;;
26211;SDS011;13951;49.516;6.094;2022-11-20T11:38:04;1.40;;;1.00;;
26211;SDS011;13951;49.516;6.094;2022-11-20T11:40:37;1.97;;;1.30;;
26211;SDS011;13951;49.516;6.094;2022-11-20T11:43:18;4.13;;;1.20;;
26211;SDS011;13951;49.516;6.094;2022-11-20T11:46:30;3.63;;;1.30;;
26211;SDS011;13951;49.516;6.094;2022-11-20T11:54:41;2.60;;;1.20;;
26211;SDS011;13951;49.516;6.094;2022-11-20T11:57:17;1.53;;;1.07;;
26211;SDS011;13951;49.516;6.094;2022-11-20T12:00:00;1.30;;;1.10;;
26211;SDS011;13951;49.516;6.094;2022-11-20T12:07:58;3.33;;;1.10;;
26211;SDS011;13951;49.516;6.094;2022-11-20T12:13:25;1.13;;;0.83;;
26211;SDS011;13951;49.516;6.094;2022-11-20T12:16:03;1.00;;;0.97;;
26211;SDS011;13951;49.516;6.094;2022-11-20T12:18:36;2.43;;;1.00;;
26211;SDS011;13951;49.516;6.094;2022-11-20T12:21:20;1.67;;;1.00;;
26211;SDS011;13951;49.516;6.094;2022-11-20T12:23:56;0.80;;;0.80;;
26211;SDS011;13951;49.516;6.094;2022-11-20T12:29:27;2.07;;;1.07;;
26211;SDS011;13951;49.516;6.094;2022-11-20T12:37:30;2.10;;;1.03;;
26211;SDS011;13951;49.516;6.094;2022-11-20T12:43:01;1.50;;;0.87;;
26211;SDS011;13951;49.516;6.094;2022-11-20T12:45:54;3.43;;;0.97;;
26211;SDS011;13951;49.516;6.094;2022-11-20T13:08:08;1.00;;;0.93;;
26211;SDS011;13951;49.516;6.094;2022-11-20T13:16:15;1.40;;;0.90;;
26211;SDS011;13951;49.516;6.094;2022-11-20T13:18:48;1.20;;;1.03;;
26211;SDS011;13951;49.516;6.094;2022-11-20T13:21:22;1.20;;;0.83;;
26211;SDS011;13951;49.516;6.094;2022-11-20T13:24:07;1.67;;;1.05;;
26211;SDS011;13951;49.516;6.094;2022-11-20T13:27:16;1.23;;;1.07;;
26211;SDS011;13951;49.516;6.094;2022-11-20T13:30:02;2.47;;;1.00;;
26211;SDS011;13951;49.516;6.094;2022-11-20T13:32:35;2.07;;;0.90;;
26211;SDS011;13951;49.516;6.094;2022-11-20T13:35:08;2.10;;;1.23;;
26211;SDS011;13951;49.516;6.094;2022-11-20T13:37:41;4.13;;;1.10;;
26211;SDS011;13951;49.516;6.094;2022-11-20T13:40:19;3.47;;;0.90;;
26211;SDS011;13951;49.516;6.094;2022-11-20T13:45:54;2.60;;;1.00;;
26211;SDS011;13951;49.516;6.094;2022-11-20T13:49:05;2.27;;;0.97;;
26211;SDS011;13951;49.516;6.094;2022-11-20T13:59:35;2.80;;;1.20;;
26211;SDS011;13951;49.516;6.094;2022-11-20T14:02:11;3.33;;;1.00;;
26211;SDS011;13951;49.516;6.094;2022-11-20T14:04:46;1.70;;;0.70;;
26211;SDS011;13951;49.516;6.094;2022-11-20T14:07:22;2.83;;;0.90;;
26211;SDS011;13951;49.516;6.094;2022-11-20T14:09:57;2.70;;;1.00;;
26211;SDS011;13951;49.516;6.094;2022-11-20T14:12:31;1.03;;;0.70;;
26211;SDS011;13951;49.516;6.094;2022-11-20T14:15:04;1.07;;;0.87;;
26211;SDS011;13951;49.516;6.094;2022-11-20T14:17:37;3.10;;;0.80;;
26211;SDS011;13951;49.516;6.094;2022-11-20T14:20:14;2.13;;;0.90;;
26211;SDS011;13951;49.516;6.094;2022-11-20T14:22:50;3.60;;;1.10;;
26211;SDS011;13951;49.516;6.094;2022-11-20T14:25:24;1.53;;;0.80;;
26211;SDS011;13951;49.516;6.094;2022-11-20T14:28:02;2.10;;;0.83;;
26211;SDS011;13951;49.516;6.094;2022-11-20T14:30:42;2.33;;;0.97;;
26211;SDS011;13951;49.516;6.094;2022-11-20T14:33:16;1.67;;;1.23;;
26211;SDS011;13951;49.516;6.094;2022-11-20T14:35:50;2.97;;;1.10;;
26211;SDS011;13951;49.516;6.094;2022-11-20T14:38:25;1.53;;;0.70;;
26211;SDS011;13951;49.516;6.094;2022-11-20T14:41:06;2.70;;;1.00;;
26211;SDS011;13951;49.516;6.094;2022-11-20T14:43:39;0.70;;;0.70;;
26211;SDS011;13951;49.516;6.094;2022-11-20T14:46:17;2.70;;;0.60;;
26211;SDS011;13951;49.516;6.094;2022-11-20T14:48:51;2.07;;;0.90;;
26211;SDS011;13951;49.516;6.094;2022-11-20T14:54:09;1.93;;;0.63;;
26211;SDS011;13951;49.516;6.094;2022-11-20T14:56:53;1.80;;;1.07;;
26211;SDS011;13951;49.516;6.094;2022-11-20T14:59:28;1.70;;;0.73;;
26211;SDS011;13951;49.516;6.094;2022-11-20T15:02:03;1.67;;;1.00;;
26211;SDS011;13951;49.516;6.094;2022-11-20T15:04:47;2.83;;;1.63;;
26211;SDS011;13951;49.516;6.094;2022-11-20T15:07:39;5.07;;;1.17;;
26211;SDS011;13951;49.516;6.094;2022-11-20T15:10:22;1.80;;;0.90;;
26211;SDS011;13951;49.516;6.094;2022-11-20T15:13:02;0.70;;;0.70;;
26211;SDS011;13951;49.516;6.094;2022-11-20T15:15:47;0.93;;;0.73;;
26211;SDS011;13951;49.516;6.094;2022-11-20T15:18:21;1.90;;;0.70;;
26211;SDS011;13951;49.516;6.094;2022-11-20T15:20:56;3.23;;;1.30;;
26211;SDS011;13951;49.516;6.094;2022-11-20T15:23:29;0.83;;;0.73;;
26211;SDS011;13951;49.516;6.094;2022-11-20T15:26:04;1.73;;;0.97;;
26211;SDS011;13951;49.516;6.094;2022-11-20T15:28:44;0.87;;;0.80;;
26211;SDS011;13951;49.516;6.094;2022-11-20T15:31:20;2.30;;;0.97;;
26211;SDS011;13951;49.516;6.094;2022-11-20T15:33:54;2.20;;;1.00;;
26211;SDS011;13951;49.516;6.094;2022-11-20T15:36:27;0.70;;;0.70;;
26211;SDS011;13951;49.516;6.094;2022-11-20T15:39:00;0.90;;;0.73;;
26211;SDS011;13951;49.516;6.094;2022-11-20T15:41:35;1.33;;;1.03;;
26211;SDS011;13951;49.516;6.094;2022-11-20T15:44:08;1.83;;;0.87;;
26211;SDS011;13951;49.516;6.094;2022-11-20T15:46:41;2.78;;;1.35;;
26211;SDS011;13951;49.516;6.094;2022-11-20T15:49:16;0.80;;;0.70;;
26211;SDS011;13951;49.516;6.094;2022-11-20T15:51:50;0.80;;;0.80;;
26211;SDS011;13951;49.516;6.094;2022-11-20T15:54:25;0.97;;;0.50;;
26211;SDS011;13951;49.516;6.094;2022-11-20T15:56:58;1.57;;;0.87;;
26211;SDS011;13951;49.516;6.094;2022-11-20T15:59:32;1.17;;;0.70;;
26211;SDS011;13951;49.516;6.094;2022-11-20T16:02:12;1.50;;;0.80;;
26211;SDS011;13951;49.516;6.094;2022-11-20T16:04:50;3.50;;;0.80;;
26211;SDS011;13951;49.516;6.094;2022-11-20T16:07:23;1.50;;;0.77;;
26211;SDS011;13951;49.516;6.094;2022-11-20T16:09:56;1.70;;;0.80;;
26211;SDS011;13951;49.516;6.094;2022-11-20T16:12:29;0.93;;;0.80;;
26211;SDS011;13951;49.516;6.094;2022-11-20T16:15:21;2.20;;;0.70;;
26211;SDS011;13951;49.516;6.094;2022-11-20T16:18:13;2.40;;;1.00;;
26211;SDS011;13951;49.516;6.094;2022-11-20T16:20:48;2.00;;;0.77;;
26211;SDS011;13951;49.516;6.094;2022-11-20T16:23:22;2.63;;;0.70;;
26211;SDS011;13951;49.516;6.094;2022-11-20T16:25:54;0.90;;;0.70;;
26211;SDS011;13951;49.516;6.094;2022-11-20T16:28:27;0.83;;;0.70;;
26211;SDS011;13951;49.516;6.094;2022-11-20T16:31:07;0.50;;;0.50;;
26211;SDS011;13951;49.516;6.094;2022-11-20T16:33:40;1.53;;;0.67;;
26211;SDS011;13951;49.516;6.094;2022-11-20T16:36:14;0.47;;;0.47;;
26211;SDS011;13951;49.516;6.094;2022-11-20T16:38:51;0.50;;;0.50;;
26211;SDS011;13951;49.516;6.094;2022-11-20T16:41:24;0.57;;;0.50;;
26211;SDS011;13951;49.516;6.094;2022-11-20T16:43:58;1.93;;;0.60;;
26211;SDS011;13951;49.516;6.094;2022-11-20T16:46:32;0.75;;;0.60;;
26211;SDS011;13951;49.516;6.094;2022-11-20T16:49:12;0.83;;;0.77;;
26211;SDS011;13951;49.516;6.094;2022-11-20T16:51:53;1.33;;;0.80;;
26211;SDS011;13951;49.516;6.094;2022-11-20T16:54:27;1.30;;;0.90;;
26211;SDS011;13951;49.516;6.094;2022-11-20T16:57:00;1.17;;;1.00;;
26211;SDS011;13951;49.516;6.094;2022-11-20T16:59:33;1.50;;;1.20;;
26211;SDS011;13951;49.516;6.094;2022-11-20T17:02:06;0.93;;;0.90;;
26211;SDS011;13951;49.516;6.094;2022-11-20T17:04:38;1.20;;;0.70;;
26211;SDS011;13951;49.516;6.094;2022-11-20T17:07:12;0.60;;;0.60;;
26211;SDS011;13951;49.516;6.094;2022-11-20T17:09:45;0.50;;;0.50;;
26211;SDS011;13951;49.516;6.094;2022-11-20T17:12:18;0.40;;;0.40;;
26211;SDS011;13951;49.516;6.094;2022-11-20T17:14:51;0.40;;;0.40;;
26211;SDS011;13951;49.516;6.094;2022-11-20T17:17:24;0.40;;;0.40;;
26211;SDS011;13951;49.516;6.094;2022-11-20T17:19:57;0.73;;;0.53;;
26211;SDS011;13951;49.516;6.094;2022-11-20T17:22:30;0.33;;;0.33;;
26211;SDS011;13951;49.516;6.094;2022-11-20T17:25:03;0.40;;;0.40;;